メインページ
METAR-TAF:

METAR-TAF

空港 :

Morrisville-Stowe State Airport

Morrisville, バーモント州, アメリカ合衆国

緯度: 44-32-10N, 経度: 072-36-58W, 海抜: 223m

現時点の気象観測

当レポートは1時間4分前の14:54(UTC)に作成
無風
気温 -19°C
湿度 92%
気圧 1032 hPa
視程: 16.1km

METAR: KMVL 181454Z AUTO 00000KT 10SM M19/M20 A3047 RMK AO2 SLPNO 6//// T11891200

時間: 10:58 (15:58 UTC)


TAF: 見つかりません

4,000以上の空港の気象観測と天気予報(METAR報とTAF報)

利用可能な観測所は地図上に黄色い丸と赤い丸で示す。

丸の上にカーソルを重ねると観測所名を参照できる。

次にクリックすると気象観測と天気予報を参照できる。

マップの切り替え:黒色「×」印の緑ボタンをクリックして拡大、「-」印の緑ボタンをクリックして縮小、緑色の三角印をクリックして隣りの地図に切り替え


METAR-TAF: